createdAt,value
2023-02-02T00:01:25.327Z,80.80
2023-02-02T00:03:53.090Z,80.97
2023-02-02T00:06:21.156Z,80.58
2023-02-02T00:08:49.514Z,80.48
2023-02-02T00:11:17.864Z,80.92
2023-02-02T00:13:47.454Z,80.60
2023-02-02T00:16:38.356Z,80.64
2023-02-02T00:19:08.618Z,80.72
2023-02-02T00:21:37.843Z,80.83
2023-02-02T00:24:06.258Z,80.26
2023-02-02T00:26:33.884Z,80.60
2023-02-02T00:29:02.873Z,80.47
2023-02-02T00:31:30.441Z,80.50
2023-02-02T00:33:57.955Z,81.14
2023-02-02T00:36:25.511Z,80.83
2023-02-02T00:38:53.867Z,82.30
2023-02-02T00:41:21.729Z,83.28
2023-02-02T00:44:09.312Z,83.13
2023-02-02T00:46:39.592Z,83.00
2023-02-02T00:49:07.149Z,82.95
2023-02-02T00:51:34.688Z,83.10
2023-02-02T00:54:02.228Z,83.57
2023-02-02T00:56:29.714Z,82.87
2023-02-02T00:58:57.212Z,82.43
2023-02-02T01:01:24.868Z,82.24
2023-02-02T01:03:53.843Z,82.49
2023-02-02T01:06:21.402Z,82.80
2023-02-02T01:08:48.857Z,82.22
2023-02-02T01:11:16.423Z,82.11
2023-02-02T01:13:44.689Z,82.28
2023-02-02T01:16:12.970Z,83.20
2023-02-02T01:18:40.464Z,83.37
2023-02-02T01:21:11.530Z,83.78
2023-02-02T01:23:40.255Z,84.38
2023-02-02T01:26:10.090Z,84.45
2023-02-02T01:28:37.916Z,84.96
2023-02-02T01:31:10.302Z,85.43
2023-02-02T01:33:38.196Z,84.87
2023-02-02T01:36:11.765Z,84.95
2023-02-02T01:38:39.315Z,85.52
2023-02-02T01:41:08.022Z,85.14
2023-02-02T01:43:58.203Z,85.23
2023-02-02T01:46:27.630Z,84.98
2023-02-02T01:49:00.584Z,84.78
2023-02-02T01:51:34.283Z,85.18
2023-02-02T01:54:03.855Z,85.96
2023-02-02T01:56:35.461Z,85.75
2023-02-02T01:59:04.345Z,85.81
2023-02-02T02:01:32.054Z,85.05
2023-02-02T02:04:00.096Z,84.82
2023-02-02T02:06:28.004Z,85.21
2023-02-02T02:09:00.144Z,85.78
2023-02-02T02:11:28.394Z,86.03
2023-02-02T02:14:16.581Z,85.83
2023-02-02T02:16:54.988Z,85.16
2023-02-02T02:20:09.391Z,84.85
2023-02-02T02:23:25.423Z,85.47
2023-02-02T02:26:32.436Z,86.12
2023-02-02T02:29:17.770Z,85.58
2023-02-02T02:32:08.784Z,85.50
2023-02-02T02:34:52.542Z,85.37
2023-02-02T02:37:28.539Z,85.53
2023-02-02T02:40:02.748Z,85.88
2023-02-02T02:42:34.454Z,85.69
2023-02-02T02:45:04.943Z,86.29
2023-02-02T02:47:35.727Z,86.42
2023-02-02T02:50:03.228Z,86.16
2023-02-02T02:52:31.026Z,85.87
2023-02-02T02:55:00.497Z,85.19
2023-02-02T02:57:42.237Z,86.79
2023-02-02T03:00:24.501Z,86.23
2023-02-02T03:02:59.167Z,85.38
2023-02-02T03:05:35.029Z,85.41
2023-02-02T03:08:10.566Z,85.78
2023-02-02T03:10:40.020Z,85.32
2023-02-02T03:13:09.585Z,85.92
2023-02-02T03:15:37.478Z,85.22
2023-02-02T03:18:06.537Z,85.92
2023-02-02T03:20:34.051Z,86.04
2023-02-02T03:23:01.550Z,86.05
2023-02-02T03:25:29.186Z,85.16
2023-02-02T03:27:56.807Z,85.12
2023-02-02T03:30:24.410Z,84.22
2023-02-02T03:32:53.806Z,84.55
2023-02-02T03:35:23.169Z,84.69
2023-02-02T03:37:50.877Z,83.96
2023-02-02T03:40:19.174Z,83.94
2023-02-02T03:42:46.772Z,84.06
2023-02-02T03:45:14.344Z,84.10
2023-02-02T03:47:41.844Z,83.29
2023-02-02T03:50:10.744Z,83.79
2023-02-02T03:52:39.624Z,83.89
2023-02-02T03:55:08.187Z,84.04
2023-02-02T03:57:35.814Z,84.87
2023-02-02T04:00:03.372Z,84.48
2023-02-02T04:02:30.874Z,84.05
2023-02-02T04:04:58.394Z,84.20
2023-02-02T04:07:25.997Z,84.33
2023-02-02T04:09:54.829Z,85.25
2023-02-02T04:12:22.321Z,86.00
2023-02-02T04:14:49.851Z,85.44
2023-02-02T04:17:17.338Z,84.96
2023-02-02T04:19:44.849Z,85.89
2023-02-02T04:22:12.449Z,85.54
2023-02-02T04:24:39.926Z,85.08
2023-02-02T04:27:08.783Z,85.78
2023-02-02T04:29:36.263Z,85.84
2023-02-02T04:32:03.785Z,86.51
2023-02-02T04:34:31.778Z,86.11
2023-02-02T04:36:59.303Z,85.71
2023-02-02T04:39:26.995Z,85.81
2023-02-02T04:41:54.479Z,86.53
2023-02-02T04:44:23.349Z,86.37
2023-02-02T04:46:50.847Z,87.06
2023-02-02T04:49:18.395Z,87.06
2023-02-02T04:51:45.907Z,87.42
2023-02-02T04:54:13.389Z,87.80
2023-02-02T04:56:40.920Z,87.54
2023-02-02T04:59:08.469Z,88.31
2023-02-02T05:01:37.317Z,88.63
2023-02-02T05:04:05.084Z,88.33
2023-02-02T05:06:32.592Z,87.73
2023-02-02T05:09:01.086Z,88.26
2023-02-02T05:11:28.813Z,87.85
2023-02-02T05:13:56.535Z,88.56
2023-02-02T05:16:27.014Z,87.99
2023-02-02T05:18:59.300Z,88.17
2023-02-02T05:21:26.915Z,87.92
2023-02-02T05:23:54.375Z,87.68
2023-02-02T05:26:24.517Z,89.09
2023-02-02T05:28:52.125Z,88.17
2023-02-02T05:31:20.694Z,88.46
2023-02-02T05:33:48.231Z,88.39
2023-02-02T05:36:17.069Z,88.14
2023-02-02T05:38:44.535Z,87.72
2023-02-02T05:41:12.010Z,88.02
2023-02-02T05:43:39.560Z,88.17
2023-02-02T05:46:07.088Z,87.43
2023-02-02T05:48:34.546Z,87.96
2023-02-02T05:51:06.193Z,88.18
2023-02-02T05:53:34.976Z,87.59
2023-02-02T05:56:02.778Z,88.12
2023-02-02T05:58:30.489Z,87.93
2023-02-02T06:00:57.954Z,87.69
2023-02-02T06:03:25.541Z,87.62
2023-02-02T06:05:53.089Z,87.89
2023-02-02T06:08:20.651Z,88.50
2023-02-02T06:10:49.440Z,87.98
2023-02-02T06:13:16.924Z,88.31
2023-02-02T06:15:44.422Z,87.44
2023-02-02T06:18:12.024Z,87.07
2023-02-02T06:20:39.568Z,86.58
2023-02-02T06:25:35.202Z,87.81
2023-02-02T06:28:04.313Z,87.56
2023-02-02T06:30:31.775Z,87.33
2023-02-02T06:33:00.312Z,87.38
2023-02-02T06:35:28.057Z,87.97
2023-02-02T06:37:55.535Z,87.49
2023-02-02T06:40:23.036Z,86.90
2023-02-02T06:42:56.684Z,87.00
2023-02-02T06:45:26.078Z,87.68
2023-02-02T06:47:54.491Z,88.32
2023-02-02T06:50:21.917Z,87.74
2023-02-02T06:52:49.768Z,87.50
2023-02-02T06:55:17.807Z,88.14
2023-02-02T06:57:45.351Z,88.60
2023-02-02T07:00:14.145Z,88.04
2023-02-02T07:02:46.022Z,88.80
2023-02-02T07:05:13.569Z,87.77
2023-02-02T07:07:41.045Z,87.97
2023-02-02T07:10:09.557Z,88.30
2023-02-02T07:12:57.007Z,87.86
2023-02-02T07:15:24.781Z,88.78
2023-02-02T07:17:55.516Z,88.48
2023-02-02T07:20:23.005Z,89.04
2023-02-02T07:22:50.458Z,87.69
2023-02-02T07:25:18.147Z,88.40
2023-02-02T07:27:46.796Z,87.88
2023-02-02T07:30:15.974Z,87.79
2023-02-02T07:32:47.883Z,88.31
2023-02-02T07:35:16.812Z,87.78
2023-02-02T07:37:44.710Z,86.89
2023-02-02T07:40:13.057Z,87.99
2023-02-02T07:42:40.523Z,88.77
2023-02-02T07:45:36.345Z,88.63
2023-02-02T07:47:59.583Z,88.61
2023-02-02T07:50:30.526Z,87.60
2023-02-02T07:52:59.760Z,88.60
2023-02-02T07:55:27.490Z,88.10
2023-02-02T07:57:58.744Z,88.25
2023-02-02T08:00:26.843Z,88.81
2023-02-02T08:02:54.614Z,88.17
2023-02-02T08:05:22.876Z,88.04
2023-02-02T08:07:51.927Z,87.89
2023-02-02T08:10:19.713Z,88.15
2023-02-02T08:12:47.247Z,88.09
2023-02-02T08:15:14.853Z,88.37
2023-02-02T08:17:45.878Z,88.04
2023-02-02T08:20:14.432Z,88.35
2023-02-02T08:22:41.991Z,87.67
2023-02-02T08:25:11.178Z,88.25
2023-02-02T08:27:38.719Z,87.19
2023-02-02T08:30:06.948Z,87.70
2023-02-02T08:32:34.699Z,88.58
2023-02-02T08:35:02.191Z,88.48
2023-02-02T08:37:29.698Z,88.13
2023-02-02T08:39:57.255Z,88.65
2023-02-02T08:42:26.218Z,88.20
2023-02-02T08:46:07.790Z,88.49
2023-02-02T08:47:41.778Z,88.23
2023-02-02T08:50:11.071Z,89.01
2023-02-02T08:52:38.615Z,88.19
2023-02-02T08:55:07.510Z,88.70
2023-02-02T08:57:36.382Z,89.21
2023-02-02T09:00:04.924Z,90.44
2023-02-02T09:02:32.457Z,89.95
2023-02-02T09:05:00.049Z,89.71
2023-02-02T09:07:27.548Z,90.22
2023-02-02T09:09:58.030Z,90.41
2023-02-02T09:12:25.848Z,90.67
2023-02-02T09:14:54.669Z,90.41
2023-02-02T09:17:22.293Z,90.49
2023-02-02T09:19:49.789Z,90.75
2023-02-02T09:22:17.319Z,89.88
2023-02-02T09:24:44.799Z,89.94
2023-02-02T09:27:12.338Z,89.46
2023-02-02T09:29:39.819Z,89.49
2023-02-02T09:32:08.933Z,89.21
2023-02-02T09:34:36.645Z,90.26
2023-02-02T09:37:04.171Z,89.40
2023-02-02T09:39:31.829Z,90.05
2023-02-02T09:42:19.631Z,88.97
2023-02-02T09:45:00.586Z,90.02
2023-02-02T09:47:41.036Z,88.51
2023-02-02T09:50:19.437Z,88.43
2023-02-02T09:52:52.157Z,88.67
2023-02-02T09:55:34.875Z,89.95
2023-02-02T09:58:09.811Z,89.56
2023-02-02T10:00:42.981Z,88.59
2023-02-02T10:03:17.641Z,88.54
2023-02-02T10:05:52.555Z,89.80
2023-02-02T10:08:34.739Z,88.47
2023-02-02T10:11:07.291Z,89.47
2023-02-02T10:13:39.073Z,88.39
2023-02-02T10:16:11.683Z,88.28
2023-02-02T10:18:48.694Z,88.74
2023-02-02T10:21:24.858Z,89.63
2023-02-02T10:23:54.504Z,89.93
2023-02-02T10:26:30.159Z,89.92
2023-02-02T10:29:09.949Z,89.13
2023-02-02T10:31:45.333Z,89.28
2023-02-02T10:34:18.847Z,89.75
2023-02-02T10:36:57.157Z,89.39
2023-02-02T10:39:35.864Z,90.27
2023-02-02T10:42:14.959Z,89.61
2023-02-02T10:44:49.697Z,90.51
2023-02-02T10:47:24.562Z,90.43
2023-02-02T10:50:02.386Z,90.08
2023-02-02T10:52:35.642Z,89.67
2023-02-02T10:55:08.275Z,88.99
2023-02-02T10:57:50.396Z,88.16
2023-02-02T11:00:25.095Z,89.63
2023-02-02T11:02:53.960Z,89.50
2023-02-02T11:05:43.945Z,88.51
2023-02-02T11:08:16.289Z,89.76
2023-02-02T11:10:46.139Z,89.14
2023-02-02T11:13:20.308Z,88.80
2023-02-02T11:15:47.997Z,89.17
2023-02-02T11:18:27.537Z,89.14
2023-02-02T11:20:56.991Z,88.22
2023-02-02T11:23:28.274Z,88.13
2023-02-02T11:26:01.276Z,88.07
2023-02-02T11:28:36.098Z,88.53
2023-02-02T11:31:04.242Z,87.49
2023-02-02T11:33:34.078Z,87.76
2023-02-02T11:36:06.087Z,88.23
2023-02-02T11:38:33.829Z,88.31
2023-02-02T11:41:04.734Z,87.92
2023-02-02T11:43:40.744Z,88.50
2023-02-02T11:46:20.347Z,89.48
2023-02-02T11:48:52.502Z,88.64
2023-02-02T11:51:25.749Z,88.07
2023-02-02T11:54:03.815Z,87.42
2023-02-02T11:56:31.576Z,88.22
2023-02-02T11:59:03.566Z,86.99
2023-02-02T12:01:33.823Z,86.91
2023-02-02T12:04:02.744Z,87.92
2023-02-02T12:06:37.465Z,87.90
2023-02-02T12:09:14.810Z,87.25
2023-02-02T12:11:53.706Z,87.02
2023-02-02T12:14:33.430Z,86.98
2023-02-02T12:17:11.742Z,86.97
2023-02-02T12:20:07.909Z,86.86
2023-02-02T12:22:47.732Z,87.11
2023-02-02T12:25:44.484Z,87.71
2023-02-02T12:28:26.255Z,87.27
2023-02-02T12:31:00.917Z,88.10
2023-02-02T12:33:38.097Z,87.27
2023-02-02T12:36:23.215Z,88.15
2023-02-02T12:39:11.019Z,86.93
2023-02-02T12:41:56.769Z,86.83
2023-02-02T12:44:28.393Z,87.74
2023-02-02T12:47:09.747Z,87.41
2023-02-02T12:49:53.964Z,87.63
2023-02-02T12:52:38.320Z,86.79
2023-02-02T12:55:17.625Z,86.34
2023-02-02T12:57:53.847Z,87.19
2023-02-02T13:00:47.799Z,87.71
2023-02-02T13:03:28.543Z,87.38
2023-02-02T13:06:28.577Z,86.55
2023-02-02T13:09:02.241Z,86.88
2023-02-02T13:11:39.587Z,87.93
2023-02-02T13:14:12.295Z,87.26
2023-02-02T13:16:44.226Z,87.41
2023-02-02T13:19:16.519Z,86.94
2023-02-02T13:21:45.760Z,86.85
2023-02-02T13:24:16.586Z,88.05
2023-02-02T13:26:48.753Z,87.43
2023-02-02T13:29:28.451Z,87.62
2023-02-02T13:32:00.881Z,86.88
2023-02-02T13:34:36.347Z,87.36
2023-02-02T13:37:12.122Z,88.31
2023-02-02T13:39:42.955Z,87.00
2023-02-02T13:42:26.738Z,87.94
2023-02-02T13:44:58.840Z,88.08
2023-02-02T13:47:31.967Z,87.49
2023-02-02T13:50:05.539Z,87.41
2023-02-02T13:52:53.791Z,87.44
2023-02-02T13:55:43.406Z,87.97
2023-02-02T13:58:32.326Z,87.99
2023-02-02T14:01:06.295Z,87.46
2023-02-02T14:03:39.647Z,86.96
2023-02-02T14:06:11.207Z,88.06
2023-02-02T14:08:45.721Z,87.82
2023-02-02T14:11:21.033Z,88.92
2023-02-02T14:14:09.825Z,89.11
2023-02-02T14:16:49.917Z,88.38
2023-02-02T14:19:19.521Z,89.05
2023-02-02T14:22:01.271Z,88.18
2023-02-02T14:24:43.351Z,88.73
2023-02-02T14:27:59.412Z,89.83
2023-02-02T14:30:33.049Z,88.41
2023-02-02T14:33:25.241Z,87.70
2023-02-02T14:36:03.717Z,89.39
2023-02-02T14:39:05.403Z,88.03
2023-02-02T14:42:17.248Z,89.49
2023-02-02T14:45:21.283Z,88.21
2023-02-02T14:47:53.586Z,88.08
2023-02-02T14:50:27.897Z,87.76
2023-02-02T14:53:08.320Z,88.23
2023-02-02T14:55:39.385Z,87.35
2023-02-02T14:58:08.428Z,87.62
2023-02-02T15:00:36.581Z,87.65
2023-02-02T15:03:36.295Z,89.37
2023-02-02T15:06:08.516Z,89.75
2023-02-02T15:08:36.246Z,89.30
2023-02-02T15:11:29.244Z,89.61
2023-02-02T15:14:06.901Z,89.74
2023-02-02T15:16:38.437Z,89.42
2023-02-02T15:19:15.088Z,89.65
2023-02-02T15:21:43.576Z,89.24
2023-02-02T15:24:22.748Z,88.43
2023-02-02T15:26:53.529Z,88.84
2023-02-02T15:29:33.138Z,89.38
2023-02-02T15:32:01.463Z,88.32
2023-02-02T15:34:39.777Z,88.07
2023-02-02T15:37:09.292Z,88.34
2023-02-02T15:39:41.123Z,87.49
2023-02-02T15:42:34.602Z,87.43
2023-02-02T15:45:02.157Z,87.59
2023-02-02T15:47:33.727Z,87.49
2023-02-02T15:50:02.817Z,87.03
2023-02-02T15:52:35.376Z,88.20
2023-02-02T15:55:03.101Z,88.14
2023-02-02T15:57:33.018Z,88.75
2023-02-02T16:00:01.838Z,88.37
2023-02-02T16:02:39.223Z,87.56
2023-02-02T16:05:26.615Z,88.78
2023-02-02T16:08:05.104Z,89.48
2023-02-02T16:10:34.251Z,90.14
2023-02-02T16:13:02.260Z,89.91
2023-02-02T16:15:31.666Z,88.70
2023-02-02T16:18:00.506Z,89.41
2023-02-02T16:20:30.439Z,88.63
2023-02-02T16:23:01.827Z,88.46
2023-02-02T16:25:33.632Z,89.84
2023-02-02T16:28:03.125Z,88.15
2023-02-02T16:30:33.292Z,87.79
2023-02-02T16:33:44.585Z,89.13
2023-02-02T16:36:25.097Z,91.24
2023-02-02T16:38:54.717Z,91.27
2023-02-02T16:41:32.096Z,90.71
2023-02-02T16:44:30.428Z,89.59
2023-02-02T16:46:59.235Z,88.69
2023-02-02T16:49:28.083Z,90.46
2023-02-02T16:52:12.624Z,89.06
2023-02-02T16:54:43.709Z,89.13
2023-02-02T16:57:19.060Z,89.79
2023-02-02T16:59:49.556Z,89.52
2023-02-02T17:02:25.352Z,88.59
2023-02-02T17:04:57.720Z,90.33
2023-02-02T17:07:27.215Z,89.96
2023-02-02T17:10:23.007Z,89.07
2023-02-02T17:12:50.540Z,90.23
2023-02-02T17:15:34.834Z,90.60
2023-02-02T17:18:03.838Z,90.65
2023-02-02T17:20:32.420Z,91.11
2023-02-02T17:23:04.632Z,91.27
2023-02-02T17:25:36.937Z,91.01
2023-02-02T17:28:08.599Z,91.27
2023-02-02T17:30:36.306Z,90.50
2023-02-02T17:33:03.877Z,90.46
2023-02-02T17:35:47.218Z,90.31
2023-02-02T17:38:20.621Z,90.84
2023-02-02T17:40:48.519Z,90.16
2023-02-02T17:43:16.801Z,90.60
2023-02-02T17:45:44.867Z,90.63
2023-02-02T17:48:13.472Z,90.46
2023-02-02T17:50:41.867Z,90.28
2023-02-02T17:53:12.244Z,90.04
2023-02-02T17:55:42.775Z,91.50
2023-02-02T17:58:13.083Z,91.35
2023-02-02T18:00:41.687Z,90.96
2023-02-02T18:03:13.867Z,90.62
2023-02-02T18:05:43.541Z,91.75
2023-02-02T18:08:12.139Z,91.67
2023-02-02T18:10:41.309Z,91.27
2023-02-02T18:13:09.427Z,90.66
2023-02-02T18:15:36.931Z,90.93
2023-02-02T18:18:04.501Z,90.92
2023-02-02T18:20:31.990Z,91.46
2023-02-02T18:22:59.502Z,91.48
2023-02-02T18:25:27.424Z,91.25
2023-02-02T18:27:57.599Z,91.42
2023-02-02T18:30:25.751Z,91.38
2023-02-02T18:32:53.689Z,92.02
2023-02-02T18:35:21.215Z,90.78
2023-02-02T18:37:49.353Z,90.83
2023-02-02T18:40:17.047Z,91.40
2023-02-02T18:42:44.567Z,92.46
2023-02-02T18:45:13.757Z,92.44
2023-02-02T18:47:41.631Z,92.54
2023-02-02T18:50:10.246Z,91.03
2023-02-02T18:52:37.751Z,90.92
2023-02-02T18:55:05.505Z,91.34
2023-02-02T18:57:33.012Z,91.75
2023-02-02T19:00:00.568Z,90.94
2023-02-02T19:02:29.452Z,92.58
2023-02-02T19:05:14.458Z,92.72
2023-02-02T19:07:57.961Z,92.63
2023-02-02T19:10:27.683Z,91.84
2023-02-02T19:12:58.238Z,92.46
2023-02-02T19:15:26.617Z,92.82
2023-02-02T19:17:56.244Z,92.15
2023-02-02T19:20:29.396Z,92.58
2023-02-02T19:23:03.732Z,92.08
2023-02-02T19:25:31.294Z,92.30
2023-02-02T19:27:59.435Z,92.10
2023-02-02T19:30:27.349Z,92.41
2023-02-02T19:32:56.485Z,92.74
2023-02-02T19:35:32.000Z,92.73
2023-02-02T19:38:03.366Z,92.63
2023-02-02T19:40:30.891Z,91.49
2023-02-02T19:43:09.500Z,91.90
2023-02-02T19:45:37.591Z,91.72
2023-02-02T19:48:16.055Z,92.00
2023-02-02T19:50:43.763Z,91.63
2023-02-02T19:53:17.345Z,91.93
2023-02-02T19:55:45.161Z,90.72
2023-02-02T19:58:17.824Z,91.19
2023-02-02T20:00:46.795Z,90.87
2023-02-02T20:03:18.362Z,90.96
2023-02-02T20:05:47.618Z,91.70
2023-02-02T20:08:23.794Z,90.92
2023-02-02T20:10:52.350Z,90.45
2023-02-02T20:13:22.113Z,89.78
2023-02-02T20:15:51.210Z,89.84
2023-02-02T20:18:22.537Z,89.67
2023-02-02T20:20:54.052Z,89.92
2023-02-02T20:23:29.739Z,88.62
2023-02-02T20:25:59.489Z,90.07
2023-02-02T20:28:41.510Z,89.66
2023-02-02T20:31:12.002Z,89.30
2023-02-02T20:33:44.464Z,90.01
2023-02-02T20:36:36.634Z,90.12
2023-02-02T20:39:33.841Z,90.59
2023-02-02T20:42:01.991Z,89.06
2023-02-02T20:44:30.576Z,89.40
2023-02-02T20:47:00.137Z,89.30
2023-02-02T20:49:31.644Z,89.58
2023-02-02T20:52:01.707Z,90.07
2023-02-02T20:54:29.282Z,89.56
2023-02-02T20:56:56.950Z,89.69
2023-02-02T20:59:25.092Z,91.17
2023-02-02T21:01:52.912Z,89.84
2023-02-02T21:04:21.842Z,89.68
2023-02-02T21:06:51.098Z,90.63
2023-02-02T21:09:18.836Z,90.98
2023-02-02T21:11:46.364Z,90.49
2023-02-02T21:14:13.894Z,89.98
2023-02-02T21:16:41.472Z,90.24
2023-02-02T21:19:09.374Z,90.36
2023-02-02T21:21:37.181Z,89.29
2023-02-02T21:24:07.864Z,89.09
2023-02-02T21:26:35.362Z,89.20
2023-02-02T21:29:03.427Z,88.60
2023-02-02T21:31:34.852Z,88.79
2023-02-02T21:34:02.649Z,88.94
2023-02-02T21:36:34.272Z,89.76
2023-02-02T21:39:13.181Z,90.77
2023-02-02T21:41:40.691Z,90.86
2023-02-02T21:44:14.143Z,90.30
2023-02-02T21:46:41.916Z,89.69
2023-02-02T21:49:18.847Z,89.64
2023-02-02T21:51:46.443Z,88.75
2023-02-02T21:54:23.174Z,89.45
2023-02-02T21:56:51.605Z,89.63
2023-02-02T21:59:21.323Z,90.02
2023-02-02T22:01:50.088Z,89.34
2023-02-02T22:04:23.426Z,89.00
2023-02-02T22:06:53.941Z,87.84
2023-02-02T22:09:25.439Z,87.58
2023-02-02T22:11:58.334Z,87.77
2023-02-02T22:14:36.863Z,88.58
2023-02-02T22:17:18.594Z,89.02
2023-02-02T22:19:46.336Z,88.79
2023-02-02T22:22:19.385Z,87.48
2023-02-02T22:24:54.696Z,86.75
2023-02-02T22:27:23.581Z,86.44
2023-02-02T22:29:55.877Z,88.24
2023-02-02T22:32:23.373Z,88.15
2023-02-02T22:34:50.816Z,89.22
2023-02-02T22:37:18.296Z,88.57
2023-02-02T22:39:45.763Z,88.55
2023-02-02T22:42:14.630Z,87.94
2023-02-02T22:44:43.890Z,88.54
2023-02-02T22:47:11.375Z,88.30
2023-02-02T22:49:38.838Z,87.97
2023-02-02T22:52:06.336Z,87.83
2023-02-02T22:54:33.807Z,87.68
2023-02-02T22:57:01.344Z,88.61
2023-02-02T22:59:30.136Z,87.52
2023-02-02T23:01:57.608Z,87.30
2023-02-02T23:04:25.116Z,88.60
2023-02-02T23:06:52.895Z,87.94
2023-02-02T23:09:20.384Z,87.80
2023-02-02T23:11:49.416Z,87.62
2023-02-02T23:14:17.040Z,86.29
2023-02-02T23:16:45.881Z,87.19
2023-02-02T23:19:13.345Z,86.49
2023-02-02T23:21:40.824Z,87.06
2023-02-02T23:24:09.022Z,86.63
2023-02-02T23:26:36.519Z,85.92
2023-02-02T23:29:04.269Z,87.40
2023-02-02T23:31:31.857Z,86.88
2023-02-02T23:34:00.715Z,87.69
2023-02-02T23:36:28.166Z,86.59
2023-02-02T23:38:55.618Z,86.08
2023-02-02T23:41:23.342Z,87.30
2023-02-02T23:43:50.844Z,87.21
2023-02-02T23:46:18.726Z,86.75
2023-02-02T23:48:47.143Z,87.77
2023-02-02T23:51:16.059Z,85.89
2023-02-02T23:53:44.196Z,86.23
2023-02-02T23:56:11.683Z,86.12
2023-02-02T23:58:39.244Z,85.96
